createdAt,value
2023-05-17T00:01:39.228Z,8.00
2023-05-17T00:04:07.184Z,7.90
2023-05-17T00:06:36.377Z,8.00
2023-05-17T00:09:04.275Z,8.10
2023-05-17T00:11:32.096Z,8.10
2023-05-17T00:13:59.913Z,7.90
2023-05-17T00:16:27.815Z,8.00
2023-05-17T00:18:55.693Z,8.10
2023-05-17T00:21:23.556Z,8.00
2023-05-17T00:23:52.706Z,7.90
2023-05-17T00:26:20.530Z,7.80
2023-05-17T00:28:48.343Z,8.00
2023-05-17T00:31:16.166Z,8.10
2023-05-17T00:33:43.970Z,8.00
2023-05-17T00:36:11.784Z,8.00
2023-05-17T00:38:39.576Z,7.90
2023-05-17T00:41:08.759Z,8.00
2023-05-17T00:43:36.572Z,7.90
2023-05-17T00:46:04.390Z,7.90
2023-05-17T00:48:32.287Z,7.90
2023-05-17T00:51:00.214Z,7.90
2023-05-17T00:53:29.033Z,7.90
2023-05-17T00:55:56.882Z,7.80
2023-05-17T00:58:26.051Z,7.80
2023-05-17T01:00:53.863Z,7.70
2023-05-17T01:03:22.624Z,7.80
2023-05-17T01:05:50.749Z,7.80
2023-05-17T01:08:18.625Z,7.80
2023-05-17T01:10:51.673Z,7.90
2023-05-17T01:13:21.211Z,7.90
2023-05-17T01:15:52.988Z,8.00
2023-05-17T01:18:22.964Z,8.10
2023-05-17T01:20:51.023Z,7.80
2023-05-17T01:23:43.239Z,7.60
2023-05-17T01:26:16.154Z,7.40
2023-05-17T01:28:46.270Z,7.60
2023-05-17T01:31:14.130Z,7.50
2023-05-17T01:33:42.083Z,7.60
2023-05-17T01:36:10.254Z,7.70
2023-05-17T01:38:38.153Z,7.80
2023-05-17T01:41:08.853Z,7.70
2023-05-17T01:43:40.408Z,7.70
2023-05-17T01:46:14.034Z,7.60
2023-05-17T01:48:45.887Z,7.80
2023-05-17T01:51:14.800Z,7.70
2023-05-17T01:53:46.224Z,7.70
2023-05-17T01:56:16.092Z,7.60
2023-05-17T01:58:46.274Z,7.60
2023-05-17T02:01:15.855Z,7.60
2023-05-17T02:03:43.839Z,7.50
2023-05-17T02:06:11.810Z,7.30
2023-05-17T02:08:39.671Z,7.30
2023-05-17T02:11:07.551Z,7.20
2023-05-17T02:13:35.407Z,7.20
2023-05-17T02:16:03.341Z,7.20
2023-05-17T02:18:35.514Z,7.20
2023-05-17T02:21:03.603Z,7.30
2023-05-17T02:23:31.451Z,7.30
2023-05-17T02:25:59.259Z,7.30
2023-05-17T02:28:28.087Z,7.30
2023-05-17T02:30:56.553Z,7.20
2023-05-17T02:33:24.606Z,7.20
2023-05-17T02:35:54.005Z,7.00
2023-05-17T02:38:21.915Z,7.10
2023-05-17T02:40:49.786Z,6.90
2023-05-17T02:43:17.580Z,6.80
2023-05-17T02:45:45.657Z,7.10
2023-05-17T02:48:13.577Z,6.90
2023-05-17T02:50:41.463Z,7.10
2023-05-17T02:53:10.656Z,7.20
2023-05-17T02:55:38.510Z,7.10
2023-05-17T02:58:06.673Z,6.80
2023-05-17T03:00:34.517Z,6.80
2023-05-17T03:03:02.439Z,6.80
2023-05-17T03:05:30.440Z,6.70
2023-05-17T03:07:58.401Z,6.70
2023-05-17T03:10:27.585Z,6.60
2023-05-17T03:12:55.489Z,6.70
2023-05-17T03:15:23.723Z,6.70
2023-05-17T03:17:51.641Z,6.90
2023-05-17T03:20:19.596Z,6.90
2023-05-17T03:22:47.474Z,6.80
2023-05-17T03:25:15.348Z,7.10
2023-05-17T03:27:44.633Z,7.00
2023-05-17T03:30:12.936Z,7.00
2023-05-17T03:32:41.184Z,6.90
2023-05-17T03:35:10.200Z,6.70
2023-05-17T03:37:38.040Z,6.70
2023-05-17T03:40:07.015Z,6.80
2023-05-17T03:42:34.858Z,6.60
2023-05-17T03:45:05.063Z,6.40
2023-05-17T03:47:33.050Z,6.70
2023-05-17T03:50:00.896Z,6.60
2023-05-17T03:52:28.733Z,6.50
2023-05-17T03:54:56.638Z,6.70
2023-05-17T03:57:24.534Z,6.50
2023-05-17T03:59:52.419Z,6.40
2023-05-17T04:02:21.724Z,6.40
2023-05-17T04:04:53.136Z,6.30
2023-05-17T04:07:21.292Z,6.20
2023-05-17T04:09:49.308Z,6.20
2023-05-17T04:12:17.231Z,6.50
2023-05-17T04:14:45.081Z,6.60
2023-05-17T04:17:13.614Z,6.20
2023-05-17T04:19:44.247Z,6.10
2023-05-17T04:22:12.091Z,6.30
2023-05-17T04:24:39.975Z,6.20
2023-05-17T04:27:08.133Z,6.10
2023-05-17T04:29:36.247Z,6.00
2023-05-17T04:32:04.634Z,6.20
2023-05-17T04:34:32.902Z,6.20
2023-05-17T04:37:02.282Z,6.50
2023-05-17T04:39:30.944Z,6.20
2023-05-17T04:41:58.898Z,6.50
2023-05-17T04:44:27.158Z,6.30
2023-05-17T04:46:55.014Z,6.40
2023-05-17T04:49:25.157Z,6.30
2023-05-17T04:51:53.196Z,6.30
2023-05-17T04:54:22.436Z,6.60
2023-05-17T04:56:50.481Z,6.40
2023-05-17T04:59:18.339Z,6.50
2023-05-17T05:01:46.226Z,6.50
2023-05-17T05:04:14.242Z,6.50
2023-05-17T05:06:42.317Z,6.40
2023-05-17T05:09:10.350Z,6.60
2023-05-17T05:11:39.673Z,6.50
2023-05-17T05:14:07.598Z,6.80
2023-05-17T05:16:36.423Z,6.70
2023-05-17T05:19:04.560Z,6.40
2023-05-17T05:21:32.638Z,6.60
2023-05-17T05:24:00.485Z,6.80
2023-05-17T05:26:28.544Z,6.60
2023-05-17T05:28:58.122Z,6.60
2023-05-17T05:31:26.035Z,6.50
2023-05-17T05:33:53.961Z,6.50
2023-05-17T05:36:21.890Z,6.50
2023-05-17T05:38:50.044Z,6.30
2023-05-17T05:41:17.950Z,6.40
2023-05-17T05:43:45.820Z,6.30
2023-05-17T05:46:15.016Z,6.20
2023-05-17T05:48:43.471Z,6.30
2023-05-17T05:51:11.902Z,6.40
2023-05-17T05:53:39.806Z,6.60
2023-05-17T05:56:07.917Z,6.70
2023-05-17T05:58:35.774Z,6.70
2023-05-17T06:01:06.092Z,6.70
2023-05-17T06:03:35.710Z,6.50
2023-05-17T06:06:03.740Z,6.60
2023-05-17T06:08:31.627Z,6.50
2023-05-17T06:11:02.361Z,6.60
2023-05-17T06:13:30.241Z,6.50
2023-05-17T06:15:59.600Z,6.40
2023-05-17T06:18:27.612Z,6.60
2023-05-17T06:20:56.822Z,7.00
2023-05-17T06:23:24.798Z,6.90
2023-05-17T06:25:52.964Z,6.70
2023-05-17T06:28:20.909Z,6.60
2023-05-17T06:30:48.737Z,6.80
2023-05-17T06:33:16.620Z,6.80
2023-05-17T06:35:55.655Z,6.70
2023-05-17T06:38:25.687Z,6.80
2023-05-17T06:40:54.275Z,6.60
2023-05-17T06:43:22.092Z,6.70
2023-05-17T06:45:49.925Z,6.70
2023-05-17T06:48:17.815Z,6.80
2023-05-17T06:50:45.737Z,6.90
2023-05-17T06:53:13.568Z,6.90
2023-05-17T06:55:43.265Z,7.10
2023-05-17T06:58:11.172Z,7.00
2023-05-17T07:00:39.024Z,6.80
2023-05-17T07:03:06.930Z,7.00
2023-05-17T07:05:34.845Z,6.90
2023-05-17T07:08:02.736Z,7.20
2023-05-17T07:10:30.635Z,7.20
2023-05-17T07:13:00.385Z,7.10
2023-05-17T07:15:28.429Z,7.20
2023-05-17T07:17:56.509Z,7.40
2023-05-17T07:20:24.666Z,7.50
2023-05-17T07:22:52.509Z,7.30
2023-05-17T07:25:21.701Z,7.30
2023-05-17T07:27:49.537Z,7.40
2023-05-17T07:30:18.735Z,7.50
2023-05-17T07:32:46.589Z,7.40
2023-05-17T07:35:14.699Z,7.60
2023-05-17T07:37:42.795Z,7.30
2023-05-17T07:40:11.829Z,7.50
2023-05-17T07:42:39.701Z,7.40
2023-05-17T07:45:08.980Z,7.40
2023-05-17T07:47:38.360Z,7.40
2023-05-17T07:50:07.383Z,7.60
2023-05-17T07:52:35.208Z,7.20
2023-05-17T07:55:03.947Z,7.30
2023-05-17T07:57:31.791Z,8.30
2023-05-17T07:59:59.593Z,8.10
2023-05-17T08:02:27.494Z,7.60
2023-05-17T08:04:56.749Z,7.70
2023-05-17T08:07:24.613Z,7.60
2023-05-17T08:09:52.443Z,7.50
2023-05-17T08:12:20.242Z,7.40
2023-05-17T08:14:48.106Z,7.60
2023-05-17T08:17:16.058Z,7.90
2023-05-17T08:19:44.083Z,7.90
2023-05-17T08:22:13.287Z,7.70
2023-05-17T08:24:41.131Z,7.60
2023-05-17T08:27:10.010Z,7.60
2023-05-17T08:29:39.614Z,7.60
2023-05-17T08:32:08.512Z,7.80
2023-05-17T08:34:36.603Z,8.00
2023-05-17T08:37:04.538Z,7.40
2023-05-17T08:39:33.777Z,7.70
2023-05-17T08:42:02.552Z,7.70
2023-05-17T08:44:30.378Z,7.90
2023-05-17T08:46:59.303Z,7.90
2023-05-17T08:49:28.841Z,7.80
2023-05-17T08:51:57.618Z,7.80
2023-05-17T08:54:25.498Z,7.70
2023-05-17T08:56:55.602Z,7.90
2023-05-17T08:59:23.664Z,7.80
2023-05-17T09:01:51.564Z,7.90
2023-05-17T09:04:19.945Z,8.00
2023-05-17T09:06:47.834Z,7.90
2023-05-17T09:09:15.811Z,8.20
2023-05-17T09:11:43.661Z,7.80
2023-05-17T09:14:12.818Z,8.10
2023-05-17T09:16:40.783Z,8.10
2023-05-17T09:19:09.730Z,8.40
2023-05-17T09:21:37.811Z,8.50
2023-05-17T09:24:08.448Z,8.60
2023-05-17T09:26:40.366Z,8.70
2023-05-17T09:29:12.984Z,8.60
2023-05-17T09:31:41.250Z,8.50
2023-05-17T09:34:09.406Z,8.40
2023-05-17T09:36:38.386Z,8.20
2023-05-17T09:39:10.765Z,8.30
2023-05-17T09:41:43.095Z,8.20
2023-05-17T09:44:12.699Z,8.30
2023-05-17T09:46:42.866Z,8.40
2023-05-17T09:49:10.750Z,8.40
2023-05-17T09:51:41.103Z,8.50
2023-05-17T09:54:10.031Z,8.60
2023-05-17T09:56:37.983Z,8.60
2023-05-17T09:59:11.609Z,8.60
2023-05-17T10:01:41.613Z,8.70
2023-05-17T10:04:10.189Z,8.90
2023-05-17T10:06:47.453Z,9.00
2023-05-17T10:09:18.566Z,9.30
2023-05-17T10:11:47.646Z,9.10
2023-05-17T10:14:18.894Z,8.80
2023-05-17T10:16:48.118Z,8.90
2023-05-17T10:19:16.117Z,8.70
2023-05-17T10:21:44.077Z,9.00
2023-05-17T10:24:11.896Z,9.20
2023-05-17T10:26:39.773Z,9.50
2023-05-17T10:29:07.735Z,10.00
2023-05-17T10:31:36.461Z,10.10
2023-05-17T10:34:06.492Z,9.90
2023-05-17T10:36:34.860Z,10.00
2023-05-17T10:39:03.065Z,9.90
2023-05-17T10:41:33.303Z,10.00
2023-05-17T10:44:01.798Z,10.10
2023-05-17T10:46:30.579Z,10.10
2023-05-17T10:48:59.223Z,10.20
2023-05-17T10:51:31.389Z,10.40
2023-05-17T10:54:09.173Z,10.10
2023-05-17T10:56:37.081Z,9.90
2023-05-17T10:59:32.215Z,10.10
2023-05-17T11:02:00.985Z,9.90
2023-05-17T11:04:33.728Z,9.90
2023-05-17T11:07:27.403Z,10.20
2023-05-17T11:09:56.416Z,10.20
2023-05-17T11:12:33.953Z,10.10
2023-05-17T11:15:02.307Z,10.50
2023-05-17T11:17:37.105Z,10.20
2023-05-17T11:20:10.901Z,10.40
2023-05-17T11:22:42.752Z,10.30
2023-05-17T11:25:12.104Z,10.00
2023-05-17T11:27:44.652Z,10.10
2023-05-17T11:30:24.550Z,10.80
2023-05-17T11:32:53.499Z,10.90
2023-05-17T11:35:25.119Z,11.40
2023-05-17T11:37:54.738Z,12.00
2023-05-17T11:40:26.450Z,12.00
2023-05-17T11:43:12.805Z,11.70
2023-05-17T11:45:45.349Z,12.00
2023-05-17T11:48:13.887Z,12.00
2023-05-17T11:50:42.073Z,11.50
2023-05-17T11:53:11.285Z,11.30
2023-05-17T11:55:39.954Z,10.80
2023-05-17T11:58:09.536Z,10.80
2023-05-17T12:00:38.810Z,10.40
2023-05-17T12:03:19.405Z,10.50
2023-05-17T12:05:47.626Z,10.60
2023-05-17T12:08:18.198Z,10.60
2023-05-17T12:10:47.652Z,10.60
2023-05-17T12:13:15.602Z,10.80
2023-05-17T12:15:45.832Z,10.40
2023-05-17T12:18:14.943Z,10.50
2023-05-17T12:20:55.380Z,10.60
2023-05-17T12:23:31.990Z,10.50
2023-05-17T12:26:04.737Z,10.50
2023-05-17T12:28:32.647Z,10.50
2023-05-17T12:31:02.889Z,10.40
2023-05-17T12:33:32.322Z,10.40
2023-05-17T12:36:00.380Z,10.40
2023-05-17T12:38:31.989Z,10.30
2023-05-17T12:41:02.078Z,10.40
2023-05-17T12:43:31.732Z,10.30
2023-05-17T12:46:07.563Z,10.40
2023-05-17T12:48:36.391Z,10.20
2023-05-17T12:51:10.061Z,10.30
2023-05-17T12:53:40.001Z,10.20
2023-05-17T12:56:09.630Z,10.30
2023-05-17T12:58:37.484Z,10.20
2023-05-17T13:01:07.024Z,10.20
2023-05-17T13:03:35.087Z,10.10
2023-05-17T13:06:04.006Z,10.10
2023-05-17T13:08:32.190Z,10.20
2023-05-17T13:11:12.934Z,10.20
2023-05-17T13:13:40.928Z,10.30
2023-05-17T13:16:09.040Z,10.20
2023-05-17T13:18:52.622Z,10.20
2023-05-17T13:21:21.089Z,10.10
2023-05-17T13:23:49.843Z,10.10
2023-05-17T13:26:19.319Z,10.10
2023-05-17T13:28:47.198Z,10.20
2023-05-17T13:31:15.205Z,10.20
2023-05-17T13:33:43.161Z,10.20
2023-05-17T13:36:12.173Z,10.20
2023-05-17T13:38:40.073Z,10.00
2023-05-17T13:41:09.330Z,10.20
2023-05-17T13:43:38.582Z,10.20
2023-05-17T13:46:06.564Z,10.30
2023-05-17T13:48:34.500Z,10.00
2023-05-17T13:51:02.489Z,10.10
2023-05-17T13:53:30.351Z,10.20
2023-05-17T13:55:58.227Z,10.10
2023-05-17T13:58:26.727Z,10.20
2023-05-17T14:00:55.985Z,10.10
2023-05-17T14:03:23.954Z,10.10
2023-05-17T14:05:53.029Z,9.80
2023-05-17T14:08:21.174Z,10.00
2023-05-17T14:10:49.189Z,10.10
2023-05-17T14:13:17.168Z,10.00
2023-05-17T14:15:45.100Z,9.90
2023-05-17T14:18:14.396Z,9.70
2023-05-17T14:20:42.287Z,9.80
2023-05-17T14:23:10.187Z,9.80
2023-05-17T14:25:38.088Z,9.90
2023-05-17T14:28:06.047Z,9.90
2023-05-17T14:30:34.269Z,9.90
2023-05-17T14:33:02.578Z,10.10
2023-05-17T14:35:31.939Z,10.20
2023-05-17T14:37:59.814Z,10.20
2023-05-17T14:40:27.822Z,10.20
2023-05-17T14:42:56.314Z,10.20
2023-05-17T14:45:24.249Z,10.20
2023-05-17T14:47:52.817Z,10.30
2023-05-17T14:50:21.052Z,10.30
2023-05-17T14:52:50.233Z,10.20
2023-05-17T14:55:18.744Z,10.30
2023-05-17T14:57:46.627Z,10.20
2023-05-17T15:00:15.223Z,10.00
2023-05-17T15:02:43.194Z,10.10
2023-05-17T15:05:11.756Z,10.20
2023-05-17T15:07:39.684Z,10.10
2023-05-17T15:10:09.942Z,10.20
2023-05-17T15:12:37.793Z,10.20
2023-05-17T15:15:06.720Z,10.20
2023-05-17T15:17:34.664Z,10.30
2023-05-17T15:20:02.677Z,10.40
2023-05-17T15:22:30.585Z,10.50
2023-05-17T15:24:58.684Z,10.50
2023-05-17T15:27:27.982Z,10.50
2023-05-17T15:29:55.831Z,10.30
2023-05-17T15:32:23.782Z,10.60
2023-05-17T15:34:52.716Z,10.60
2023-05-17T15:37:20.585Z,10.50
2023-05-17T15:39:48.738Z,10.30
2023-05-17T15:42:16.695Z,10.30
2023-05-17T15:44:46.973Z,10.50
2023-05-17T15:47:14.956Z,10.50
2023-05-17T15:49:42.791Z,10.60
2023-05-17T15:52:12.664Z,10.30
2023-05-17T15:54:42.186Z,10.20
2023-05-17T15:57:10.113Z,10.20
2023-05-17T15:59:38.072Z,10.20
2023-05-17T16:02:07.436Z,10.30
2023-05-17T16:04:35.380Z,10.30
2023-05-17T16:07:03.339Z,10.30
2023-05-17T16:09:31.278Z,10.20
2023-05-17T16:11:59.150Z,10.10
2023-05-17T16:14:27.111Z,10.30
2023-05-17T16:16:55.128Z,10.30
2023-05-17T16:19:25.134Z,10.30
2023-05-17T16:21:53.131Z,10.30
2023-05-17T16:24:21.663Z,10.40
2023-05-17T16:26:49.606Z,10.30
2023-05-17T16:29:18.563Z,10.20
2023-05-17T16:31:46.834Z,10.30
2023-05-17T16:34:14.819Z,10.30
2023-05-17T16:36:47.347Z,10.40
2023-05-17T16:39:15.200Z,10.40
2023-05-17T16:41:43.269Z,10.40
2023-05-17T16:44:11.187Z,10.40
2023-05-17T16:46:39.065Z,10.30
2023-05-17T16:49:07.188Z,10.20
2023-05-17T16:51:35.031Z,10.10
2023-05-17T16:54:04.323Z,10.10
2023-05-17T16:56:32.435Z,10.10
2023-05-17T16:59:00.323Z,10.30
2023-05-17T17:01:28.196Z,10.30
2023-05-17T17:03:56.708Z,10.20
2023-05-17T17:06:24.690Z,10.20
2023-05-17T17:08:53.064Z,10.10
2023-05-17T17:11:22.847Z,10.20
2023-05-17T17:13:50.902Z,10.30
2023-05-17T17:16:20.288Z,10.30
2023-05-17T17:18:49.664Z,10.30
2023-05-17T17:21:18.129Z,10.20
2023-05-17T17:23:46.079Z,10.20
2023-05-17T17:26:13.979Z,10.20
2023-05-17T17:28:43.311Z,10.10
2023-05-17T17:31:11.248Z,10.00
2023-05-17T17:33:39.229Z,10.10
2023-05-17T17:36:09.235Z,10.00
2023-05-17T17:38:37.260Z,10.10
2023-05-17T17:41:05.267Z,10.10
2023-05-17T17:43:33.187Z,9.90
2023-05-17T17:46:02.540Z,9.90
2023-05-17T17:48:30.527Z,10.00
2023-05-17T17:50:59.157Z,9.90
2023-05-17T17:53:28.388Z,10.00
2023-05-17T17:55:56.637Z,10.00
2023-05-17T17:58:24.676Z,10.00
2023-05-17T18:00:53.873Z,9.90
2023-05-17T18:03:23.192Z,9.80
2023-05-17T18:05:51.157Z,9.80
2023-05-17T18:08:18.986Z,9.90
2023-05-17T18:10:46.880Z,10.00
2023-05-17T18:13:14.695Z,9.70
2023-05-17T18:15:42.861Z,9.70
2023-05-17T18:18:10.905Z,9.70
2023-05-17T18:20:40.394Z,9.80
2023-05-17T18:23:08.453Z,9.60
2023-05-17T18:25:36.788Z,9.60
2023-05-17T18:28:06.762Z,9.80
2023-05-17T18:30:35.964Z,9.80
2023-05-17T18:33:04.240Z,9.80
2023-05-17T18:35:32.189Z,9.70
2023-05-17T18:38:01.787Z,9.50
2023-05-17T18:40:30.027Z,9.40
2023-05-17T18:42:58.115Z,9.40
2023-05-17T18:45:26.000Z,9.40
2023-05-17T18:47:53.914Z,9.30
2023-05-17T18:50:21.860Z,9.20
2023-05-17T18:52:49.843Z,9.40
2023-05-17T18:55:19.208Z,9.50
2023-05-17T18:57:47.573Z,9.60
2023-05-17T19:00:16.248Z,9.50
2023-05-17T19:02:44.205Z,9.50
2023-05-17T19:05:12.316Z,9.40
2023-05-17T19:07:40.221Z,9.40
2023-05-17T19:10:09.002Z,9.30
2023-05-17T19:12:38.290Z,9.40
2023-05-17T19:15:06.996Z,9.20
2023-05-17T19:17:34.991Z,9.40
2023-05-17T19:20:03.738Z,9.50
2023-05-17T19:22:31.800Z,9.40
2023-05-17T19:25:00.085Z,9.30
2023-05-17T19:27:27.955Z,9.40
2023-05-17T19:29:57.374Z,9.30
2023-05-17T19:32:25.336Z,9.30
2023-05-17T19:34:53.282Z,9.40
2023-05-17T19:37:21.156Z,9.50
2023-05-17T19:39:49.017Z,9.30
2023-05-17T19:42:17.125Z,9.30
2023-05-17T19:44:45.015Z,9.00
2023-05-17T19:47:14.230Z,9.00
2023-05-17T19:49:43.239Z,9.10
2023-05-17T19:52:11.498Z,9.10
2023-05-17T19:54:39.426Z,9.20
2023-05-17T19:57:07.947Z,9.10
2023-05-17T19:59:35.802Z,9.20
2023-05-17T20:02:03.670Z,9.30
2023-05-17T20:04:32.893Z,9.10
2023-05-17T20:07:00.745Z,9.00
2023-05-17T20:09:30.343Z,8.90
2023-05-17T20:11:58.440Z,9.00
2023-05-17T20:14:27.289Z,9.00
2023-05-17T20:16:55.345Z,9.00
2023-05-17T20:19:23.930Z,8.90
2023-05-17T20:21:53.311Z,8.80
2023-05-17T20:24:23.312Z,8.80
2023-05-17T20:26:51.154Z,8.90
2023-05-17T20:29:19.033Z,8.90
2023-05-17T20:31:46.942Z,8.80
2023-05-17T20:34:14.876Z,8.80
2023-05-17T20:36:42.791Z,8.80
2023-05-17T20:39:12.587Z,8.60
2023-05-17T20:41:40.732Z,8.90
2023-05-17T20:44:08.564Z,8.80
2023-05-17T20:46:36.473Z,8.80
2023-05-17T20:49:04.321Z,8.70
2023-05-17T20:51:32.183Z,8.70
2023-05-17T20:54:00.043Z,8.70
2023-05-17T20:56:29.291Z,8.70
2023-05-17T20:58:57.372Z,8.60
2023-05-17T21:01:25.559Z,8.70
2023-05-17T21:03:53.577Z,8.70
2023-05-17T21:06:22.270Z,8.70
2023-05-17T21:08:50.428Z,8.60
2023-05-17T21:11:21.363Z,8.70
2023-05-17T21:13:50.783Z,8.70
2023-05-17T21:16:18.835Z,8.90
2023-05-17T21:18:46.897Z,8.80
2023-05-17T21:21:14.831Z,8.80
2023-05-17T21:23:42.732Z,8.70
2023-05-17T21:26:10.779Z,8.80
2023-05-17T21:28:38.821Z,8.80
2023-05-17T21:31:08.121Z,8.60
2023-05-17T21:33:36.086Z,8.70
2023-05-17T21:36:04.100Z,8.70
2023-05-17T21:38:32.263Z,8.60
2023-05-17T21:41:00.293Z,8.70
2023-05-17T21:43:28.199Z,8.60
2023-05-17T21:45:56.117Z,8.40
2023-05-17T21:48:25.586Z,8.40
2023-05-17T21:50:53.587Z,8.40
2023-05-17T21:53:21.385Z,8.50
2023-05-17T21:56:01.207Z,8.40
2023-05-17T21:58:29.668Z,8.30
2023-05-17T22:00:58.249Z,8.30
2023-05-17T22:03:27.882Z,8.40
2023-05-17T22:05:55.903Z,8.30
2023-05-17T22:08:24.081Z,8.30
2023-05-17T22:10:54.328Z,8.50
2023-05-17T22:13:26.218Z,8.50
2023-05-17T22:15:57.602Z,8.60
2023-05-17T22:18:31.990Z,8.50
2023-05-17T22:21:00.311Z,8.30
2023-05-17T22:23:28.379Z,8.30
2023-05-17T22:26:00.317Z,8.20
2023-05-17T22:28:28.662Z,8.10
2023-05-17T22:30:56.886Z,8.10
2023-05-17T22:33:24.884Z,8.00
2023-05-17T22:35:54.356Z,8.10
2023-05-17T22:38:23.325Z,8.30
2023-05-17T22:40:51.349Z,8.30
2023-05-17T22:43:21.384Z,8.30
2023-05-17T22:45:50.449Z,8.10
2023-05-17T22:48:20.112Z,8.00
2023-05-17T22:50:48.293Z,8.10
2023-05-17T22:53:18.665Z,7.90
2023-05-17T22:55:48.899Z,7.90
2023-05-17T22:58:16.974Z,7.80
2023-05-17T23:00:45.142Z,7.80
2023-05-17T23:03:13.335Z,8.10
2023-05-17T23:05:41.449Z,7.90
2023-05-17T23:08:09.949Z,7.90
2023-05-17T23:10:39.313Z,7.80
2023-05-17T23:13:07.181Z,8.10
2023-05-17T23:15:37.135Z,8.10
2023-05-17T23:18:05.635Z,8.00
2023-05-17T23:20:34.964Z,7.80
2023-05-17T23:23:02.902Z,7.70
2023-05-17T23:25:31.695Z,8.00
2023-05-17T23:28:04.642Z,7.90
2023-05-17T23:30:33.421Z,7.80
2023-05-17T23:33:02.968Z,7.80
2023-05-17T23:35:31.086Z,8.00
2023-05-17T23:37:59.652Z,8.00
2023-05-17T23:40:27.487Z,7.90
2023-05-17T23:42:55.537Z,8.00
2023-05-17T23:45:24.912Z,8.10
2023-05-17T23:47:52.809Z,7.70
2023-05-17T23:50:20.772Z,7.50
2023-05-17T23:52:48.648Z,7.40
2023-05-17T23:55:16.714Z,7.40
2023-05-17T23:57:44.592Z,7.40
